首页
METAR-TAF:

METAR-TAF

机场 :

里尔, 法国

纬度: 50-34N, 经度: 003-06E, 海拔: 48米

当前天气观测

该预报发布于45分钟前的19:30 UTC
风速14节,风向南转西南
温度 8°C
湿度 71%
气压 1026 hPa
能见度10公里或以上
阴天层高于3400英尺

METAR: LFQQ 211930Z AUTO 21014KT 9999 OVC034 08/03 Q1026 NOSIG

时间: 21:15 (20:15 UTC)

预报

该预报发布于3小时和15分钟前的17:00 UTC
预报有效从21日的 18点(UTC)到 22日的 24点(UTC)
风速15节,风向西南
能见度10公里或以上
阴天层高于3700英尺
成为
从 22日的 08点(UTC)到 22日的 10点(UTC)
多云层高于1400英尺
短暂存在
从 22日的 13点(UTC)到 22日的 18点(UTC)
风速20节,风向西南,有时为30节阵风
能見度: 4000
阴天层高于700英尺
毛毛雨

TAF: LFQQ 211700Z 2118/2224 22015KT 9999 OVC037 BECMG 2208/2210 BKN014 TEMPO 2213/2218 23020G30KT 4000 DZ OVC007

超过4000个机场的气象观测和天气预报(METAR&TAF报告)。

可查询的气象台以黄色和红色小点在地图上表示。

将鼠标移到小点上方,可查看气象台名称。

然后点击查看天气观测和预报。

如需切换地图:点击带黑十字的绿色按钮放大地图;点击带横线的绿色按钮缩小地图;或者点击绿色箭头查看邻近地区的地图。


METAR-TAF: